Manhattan Regional Airport
KMHK : now visible

Aeroporto :











RITROVATECI SU...

 
LOGIN :

Iscrizione | Disclaimer

   EN    FR    IT 

 









Sommario :    VFR   VFR Marginale   IFR   IFR Intensivo   IFR Molto Intensivo
Visibilità : 
Base nubi : 
>= 8 km
>= 3000ft
5 / 8 km
1000 / 3000 ft
1500m / 5 km
500 / 1000 ft
800 / 1500m
200 / 500 ft
< 800m
< 200 ft
Simboli :   Temporali  Nebbia  Neve Forte  Precipitazioni Forti  Vento > 20 kt






- Altitudine del aeroporto : 1057 ft
- Codice IATA : MHK


KMHK - Manhattan Regional

ULTIMO METAR :
  • 151609Z 04009KT 1SM -SN BR OVC024 M05/M07 A3002 RMK AO2 P0001 T10501067

METARs OBSOLETI :
  • 151552Z 04007KT 1SM -SN BR VV017 M05/M07 A3001 RMK AO2 SLP177 P0004 T10501067
  • 151548Z 05008KT 3/4SM -SN BR FEW008 OVC014 M05/M06 A3001 RMK AO2 P0004
  • 151452Z 07009KT 1/2SM SN FZFG VV011 M05/M07 A2999 RMK AO2 SLP170 P0002 60004 T10501067 53000
  • 151441Z 06009KT 3/4SM -SN BR VV010 M05/M07 A2999 RMK AO2 P0002 T10501067
  • 151418Z 07009KT 1/2SM SN FZFG VV009 M05/M07 A2998 RMK AO2 P0001 T10501067
  • 151408Z 07009KT 1/2SM SN FZFG VV010 M05/M07 A2998 RMK AO2 P0001 T10501067
  • 151400Z 06011KT 3/4SM -SN BR VV009 M05/M07 A2998 RMK AO2 P0000 T10501067
  • 151319Z 06010KT 1 1/2SM -SN BR OVC014 M05/M07 A2998 RMK AO2 P0000 T10501067

TAF KMHK
Valido dal 15 a 12 ore il 16 a 12 ore UTC


151125Z 1512/1612 07008KT 2SM -SN OVC010
TEMPO 1512/1516 3/4SM -SN VV006
FM152300 04008KT P6SM VCSH OVC010
FM160100 03005KT P6SM BKN025



MetMap, La meteo Aeronautica in un colpo d'occhio ! - Copyright ORBIFLY Dicembre 2007 - Disclaimer

ORBIFLY MET'MAP TEAM :

Programmazione e sviluppo : Alexandra Zaïnal
Concezione : Baudouin d'Aumeries
Aiuto per la programmazione : Marc-Olivier Méhu
Supporto tecnico e logistico : Manuel Goepfert
Aiuto per la traduzione : Arnaldo La Scala

Contatto : metmap@orbifly.com




FONTI E CREDITI :

   NOAA       Earth
Advisory